Terminal Aerodrome Forecast
Issued by NWS

Home | Current Version | Previous Version | Graphics & Text | Print | Product List | Glossary On
Versions: 1 2 3 4 5 6 7 8 9 10 11 12 13 14 15 16 17 18
000
FTUS43 KLSX 270500
TAFSUS
TAF
KSUS 270520Z 2706/2806 29004KT P6SM BKN040
     FM271000 34010KT P6SM BKN025
     FM271700 35008KT P6SM BKN030
     FM280100 09006KT P6SM SCT030=

USA.gov is the U.S. government's official web portal to all federal, state and local government web resources and services.